sensor_id;sensor_type;location;lat;lon;timestamp;P1;durP1;ratioP1;P2;durP2;ratioP2
45490;SDS011;31237;45.586;13.782;2022-09-14T00:00:59;1.80;;;1.05;;
45490;SDS011;31237;45.586;13.782;2022-09-14T00:03:25;2.22;;;1.60;;
45490;SDS011;31237;45.586;13.782;2022-09-14T00:05:51;1.63;;;0.95;;
45490;SDS011;31237;45.586;13.782;2022-09-14T00:08:16;1.90;;;1.10;;
45490;SDS011;31237;45.586;13.782;2022-09-14T00:10:43;1.85;;;1.10;;
45490;SDS011;31237;45.586;13.782;2022-09-14T00:13:11;1.48;;;1.10;;
45490;SDS011;31237;45.586;13.782;2022-09-14T00:15:38;1.15;;;1.00;;
45490;SDS011;31237;45.586;13.782;2022-09-14T00:18:05;2.50;;;1.00;;
45490;SDS011;31237;45.586;13.782;2022-09-14T00:20:33;1.45;;;0.90;;
45490;SDS011;31237;45.586;13.782;2022-09-14T00:22:59;1.60;;;1.00;;
45490;SDS011;31237;45.586;13.782;2022-09-14T00:25:26;1.92;;;1.08;;
45490;SDS011;31237;45.586;13.782;2022-09-14T00:27:52;1.20;;;0.98;;
45490;SDS011;31237;45.586;13.782;2022-09-14T00:30:19;1.08;;;0.90;;
45490;SDS011;31237;45.586;13.782;2022-09-14T00:32:46;1.85;;;1.10;;
45490;SDS011;31237;45.586;13.782;2022-09-14T00:35:12;1.52;;;0.90;;
45490;SDS011;31237;45.586;13.782;2022-09-14T00:37:38;2.45;;;1.00;;
45490;SDS011;31237;45.586;13.782;2022-09-14T00:40:04;1.00;;;0.90;;
45490;SDS011;31237;45.586;13.782;2022-09-14T00:42:30;0.80;;;0.80;;
45490;SDS011;31237;45.586;13.782;2022-09-14T00:44:57;1.05;;;0.90;;
45490;SDS011;31237;45.586;13.782;2022-09-14T00:47:25;1.40;;;0.90;;
45490;SDS011;31237;45.586;13.782;2022-09-14T00:49:52;1.23;;;1.02;;
45490;SDS011;31237;45.586;13.782;2022-09-14T00:52:19;1.70;;;1.00;;
45490;SDS011;31237;45.586;13.782;2022-09-14T00:57:17;1.20;;;0.95;;
45490;SDS011;31237;45.586;13.782;2022-09-14T00:59:45;1.10;;;1.00;;
45490;SDS011;31237;45.586;13.782;2022-09-14T01:02:12;1.30;;;0.95;;
45490;SDS011;31237;45.586;13.782;2022-09-14T01:04:39;1.23;;;0.93;;
45490;SDS011;31237;45.586;13.782;2022-09-14T01:15:10;1.52;;;1.05;;
45490;SDS011;31237;45.586;13.782;2022-09-14T01:20:23;1.73;;;1.00;;
45490;SDS011;31237;45.586;13.782;2022-09-14T01:28:42;1.30;;;0.93;;
45490;SDS011;31237;45.586;13.782;2022-09-14T01:31:16;1.50;;;1.02;;
45490;SDS011;31237;45.586;13.782;2022-09-14T01:33:50;1.77;;;1.02;;
45490;SDS011;31237;45.586;13.782;2022-09-14T01:36:19;1.13;;;0.98;;
45490;SDS011;31237;45.586;13.782;2022-09-14T01:38:46;1.35;;;1.00;;
45490;SDS011;31237;45.586;13.782;2022-09-14T01:41:14;1.25;;;1.00;;
45490;SDS011;31237;45.586;13.782;2022-09-14T01:43:49;1.55;;;1.08;;
45490;SDS011;31237;45.586;13.782;2022-09-14T01:46:20;1.23;;;0.90;;
45490;SDS011;31237;45.586;13.782;2022-09-14T01:49:13;1.80;;;0.95;;
45490;SDS011;31237;45.586;13.782;2022-09-14T01:51:47;1.02;;;0.90;;
45490;SDS011;31237;45.586;13.782;2022-09-14T01:56:53;1.05;;;0.80;;
45490;SDS011;31237;45.586;13.782;2022-09-14T01:59:24;1.40;;;1.00;;
45490;SDS011;31237;45.586;13.782;2022-09-14T02:01:57;1.65;;;1.10;;
45490;SDS011;31237;45.586;13.782;2022-09-14T02:04:51;1.40;;;0.95;;
45490;SDS011;31237;45.586;13.782;2022-09-14T02:07:14;2.20;;;0.90;;
45490;SDS011;31237;45.586;13.782;2022-09-14T02:09:40;1.10;;;0.90;;
45490;SDS011;31237;45.586;13.782;2022-09-14T02:12:06;1.83;;;1.10;;
45490;SDS011;31237;45.586;13.782;2022-09-14T02:14:32;1.98;;;1.00;;
45490;SDS011;31237;45.586;13.782;2022-09-14T02:16:58;1.58;;;1.10;;
45490;SDS011;31237;45.586;13.782;2022-09-14T02:19:25;1.52;;;1.00;;
45490;SDS011;31237;45.586;13.782;2022-09-14T02:21:55;1.55;;;0.90;;
45490;SDS011;31237;45.586;13.782;2022-09-14T02:24:20;1.38;;;1.00;;
45490;SDS011;31237;45.586;13.782;2022-09-14T02:26:46;1.90;;;1.10;;
45490;SDS011;31237;45.586;13.782;2022-09-14T02:29:15;1.35;;;1.00;;
45490;SDS011;31237;45.586;13.782;2022-09-14T02:40:12;1.10;;;0.93;;
45490;SDS011;31237;45.586;13.782;2022-09-14T02:50:58;1.48;;;1.10;;
45490;SDS011;31237;45.586;13.782;2022-09-14T02:53:52;1.42;;;0.95;;
45490;SDS011;31237;45.586;13.782;2022-09-14T02:56:32;1.25;;;1.00;;
45490;SDS011;31237;45.586;13.782;2022-09-14T02:59:00;1.70;;;1.10;;
45490;SDS011;31237;45.586;13.782;2022-09-14T03:01:26;1.20;;;0.98;;
45490;SDS011;31237;45.586;13.782;2022-09-14T03:03:52;1.00;;;0.90;;
45490;SDS011;31237;45.586;13.782;2022-09-14T03:06:17;1.48;;;1.00;;
45490;SDS011;31237;45.586;13.782;2022-09-14T03:08:43;1.60;;;1.00;;
45490;SDS011;31237;45.586;13.782;2022-09-14T03:11:09;1.38;;;1.05;;
45490;SDS011;31237;45.586;13.782;2022-09-14T03:13:35;2.10;;;1.50;;
45490;SDS011;31237;45.586;13.782;2022-09-14T03:16:12;1.98;;;1.00;;
45490;SDS011;31237;45.586;13.782;2022-09-14T03:18:40;1.20;;;0.90;;
45490;SDS011;31237;45.586;13.782;2022-09-14T03:21:07;1.13;;;1.00;;
45490;SDS011;31237;45.586;13.782;2022-09-14T03:23:39;1.55;;;0.95;;
45490;SDS011;31237;45.586;13.782;2022-09-14T03:26:07;0.82;;;0.80;;
45490;SDS011;31237;45.586;13.782;2022-09-14T03:28:34;1.27;;;1.00;;
45490;SDS011;31237;45.586;13.782;2022-09-14T03:31:01;1.83;;;1.25;;
45490;SDS011;31237;45.586;13.782;2022-09-14T03:33:28;1.48;;;1.00;;
45490;SDS011;31237;45.586;13.782;2022-09-14T03:35:54;1.45;;;1.00;;
45490;SDS011;31237;45.586;13.782;2022-09-14T03:38:19;1.70;;;1.00;;
45490;SDS011;31237;45.586;13.782;2022-09-14T03:40:45;1.33;;;1.00;;
45490;SDS011;31237;45.586;13.782;2022-09-14T03:43:12;1.50;;;1.00;;
45490;SDS011;31237;45.586;13.782;2022-09-14T03:45:38;1.80;;;1.20;;
45490;SDS011;31237;45.586;13.782;2022-09-14T03:48:04;1.05;;;0.95;;
45490;SDS011;31237;45.586;13.782;2022-09-14T03:50:31;1.00;;;0.90;;
45490;SDS011;31237;45.586;13.782;2022-09-14T03:52:57;1.67;;;1.10;;
45490;SDS011;31237;45.586;13.782;2022-09-14T03:55:23;1.67;;;0.90;;
45490;SDS011;31237;45.586;13.782;2022-09-14T03:57:53;3.38;;;1.10;;
45490;SDS011;31237;45.586;13.782;2022-09-14T04:00:19;1.73;;;1.10;;
45490;SDS011;31237;45.586;13.782;2022-09-14T04:02:45;1.58;;;1.05;;
45490;SDS011;31237;45.586;13.782;2022-09-14T04:05:11;1.10;;;0.90;;
45490;SDS011;31237;45.586;13.782;2022-09-14T04:07:36;1.17;;;0.95;;
45490;SDS011;31237;45.586;13.782;2022-09-14T04:10:02;1.85;;;1.10;;
45490;SDS011;31237;45.586;13.782;2022-09-14T04:12:32;1.70;;;1.00;;
45490;SDS011;31237;45.586;13.782;2022-09-14T04:15:02;1.55;;;1.10;;
45490;SDS011;31237;45.586;13.782;2022-09-14T04:17:31;1.25;;;1.00;;
45490;SDS011;31237;45.586;13.782;2022-09-14T04:19:57;1.40;;;1.00;;
45490;SDS011;31237;45.586;13.782;2022-09-14T04:22:23;1.40;;;1.00;;
45490;SDS011;31237;45.586;13.782;2022-09-14T04:24:48;2.40;;;1.10;;
45490;SDS011;31237;45.586;13.782;2022-09-14T04:27:15;1.70;;;0.93;;
45490;SDS011;31237;45.586;13.782;2022-09-14T04:29:40;1.00;;;0.90;;
45490;SDS011;31237;45.586;13.782;2022-09-14T04:32:06;2.10;;;1.08;;
45490;SDS011;31237;45.586;13.782;2022-09-14T04:34:33;1.10;;;0.90;;
45490;SDS011;31237;45.586;13.782;2022-09-14T04:36:59;1.20;;;1.00;;
45490;SDS011;31237;45.586;13.782;2022-09-14T04:39:25;1.75;;;1.00;;
45490;SDS011;31237;45.586;13.782;2022-09-14T04:41:51;1.63;;;1.00;;
45490;SDS011;31237;45.586;13.782;2022-09-14T04:44:16;1.30;;;1.00;;
45490;SDS011;31237;45.586;13.782;2022-09-14T04:46:42;1.38;;;1.00;;
45490;SDS011;31237;45.586;13.782;2022-09-14T04:49:08;1.17;;;0.90;;
45490;SDS011;31237;45.586;13.782;2022-09-14T04:51:34;1.05;;;0.90;;
45490;SDS011;31237;45.586;13.782;2022-09-14T04:54:02;1.67;;;1.00;;
45490;SDS011;31237;45.586;13.782;2022-09-14T04:56:33;1.23;;;1.00;;
45490;SDS011;31237;45.586;13.782;2022-09-14T04:59:01;1.17;;;0.90;;
45490;SDS011;31237;45.586;13.782;2022-09-14T05:01:29;1.27;;;0.90;;
45490;SDS011;31237;45.586;13.782;2022-09-14T05:04:00;1.55;;;1.10;;
45490;SDS011;31237;45.586;13.782;2022-09-14T05:06:27;1.40;;;1.00;;
45490;SDS011;31237;45.586;13.782;2022-09-14T05:08:55;1.15;;;0.90;;
45490;SDS011;31237;45.586;13.782;2022-09-14T05:11:25;1.15;;;0.90;;
45490;SDS011;31237;45.586;13.782;2022-09-14T05:13:54;0.90;;;0.80;;
45490;SDS011;31237;45.586;13.782;2022-09-14T05:16:24;1.80;;;1.10;;
45490;SDS011;31237;45.586;13.782;2022-09-14T05:18:55;1.35;;;0.80;;
45490;SDS011;31237;45.586;13.782;2022-09-14T05:21:25;1.33;;;0.90;;
45490;SDS011;31237;45.586;13.782;2022-09-14T05:23:55;1.50;;;0.95;;
45490;SDS011;31237;45.586;13.782;2022-09-14T05:26:23;1.50;;;1.00;;
45490;SDS011;31237;45.586;13.782;2022-09-14T05:28:51;1.63;;;1.10;;
45490;SDS011;31237;45.586;13.782;2022-09-14T05:31:18;1.15;;;0.93;;
45490;SDS011;31237;45.586;13.782;2022-09-14T05:33:44;1.15;;;0.90;;
45490;SDS011;31237;45.586;13.782;2022-09-14T05:36:10;1.83;;;1.05;;
45490;SDS011;31237;45.586;13.782;2022-09-14T05:38:37;1.60;;;1.00;;
45490;SDS011;31237;45.586;13.782;2022-09-14T05:41:04;1.75;;;1.00;;
45490;SDS011;31237;45.586;13.782;2022-09-14T05:43:31;1.00;;;0.90;;
45490;SDS011;31237;45.586;13.782;2022-09-14T05:46:04;1.27;;;0.90;;
45490;SDS011;31237;45.586;13.782;2022-09-14T05:48:40;2.95;;;1.00;;
45490;SDS011;31237;45.586;13.782;2022-09-14T05:51:13;2.10;;;1.20;;
45490;SDS011;31237;45.586;13.782;2022-09-14T05:53:41;1.58;;;1.00;;
45490;SDS011;31237;45.586;13.782;2022-09-14T05:56:08;1.00;;;0.85;;
45490;SDS011;31237;45.586;13.782;2022-09-14T05:58:36;0.82;;;0.80;;
45490;SDS011;31237;45.586;13.782;2022-09-14T06:01:24;2.38;;;1.10;;
45490;SDS011;31237;45.586;13.782;2022-09-14T06:03:54;1.08;;;0.90;;
45490;SDS011;31237;45.586;13.782;2022-09-14T06:06:21;1.15;;;0.90;;
45490;SDS011;31237;45.586;13.782;2022-09-14T06:08:48;1.52;;;1.00;;
45490;SDS011;31237;45.586;13.782;2022-09-14T06:11:17;0.80;;;0.80;;
45490;SDS011;31237;45.586;13.782;2022-09-14T06:13:45;1.13;;;0.90;;
45490;SDS011;31237;45.586;13.782;2022-09-14T06:16:15;1.23;;;0.98;;
45490;SDS011;31237;45.586;13.782;2022-09-14T06:18:43;3.10;;;0.98;;
45490;SDS011;31237;45.586;13.782;2022-09-14T06:21:11;2.03;;;1.30;;
45490;SDS011;31237;45.586;13.782;2022-09-14T06:23:41;1.17;;;0.82;;
45490;SDS011;31237;45.586;13.782;2022-09-14T06:26:07;1.95;;;1.00;;
45490;SDS011;31237;45.586;13.782;2022-09-14T06:28:34;2.05;;;1.05;;
45490;SDS011;31237;45.586;13.782;2022-09-14T06:31:01;1.98;;;1.10;;
45490;SDS011;31237;45.586;13.782;2022-09-14T06:33:28;2.22;;;1.30;;
45490;SDS011;31237;45.586;13.782;2022-09-14T06:36:02;1.63;;;1.00;;
45490;SDS011;31237;45.586;13.782;2022-09-14T06:38:33;1.08;;;0.90;;
45490;SDS011;31237;45.586;13.782;2022-09-14T06:41:00;2.28;;;1.20;;
45490;SDS011;31237;45.586;13.782;2022-09-14T06:43:29;1.52;;;1.00;;
45490;SDS011;31237;45.586;13.782;2022-09-14T06:45:57;1.63;;;1.00;;
45490;SDS011;31237;45.586;13.782;2022-09-14T06:48:27;2.35;;;1.20;;
45490;SDS011;31237;45.586;13.782;2022-09-14T06:50:58;1.35;;;1.00;;
45490;SDS011;31237;45.586;13.782;2022-09-14T06:53:24;5.00;;;1.20;;
45490;SDS011;31237;45.586;13.782;2022-09-14T06:55:50;1.52;;;1.20;;
45490;SDS011;31237;45.586;13.782;2022-09-14T06:58:17;1.20;;;0.90;;
45490;SDS011;31237;45.586;13.782;2022-09-14T07:00:42;1.45;;;0.90;;
45490;SDS011;31237;45.586;13.782;2022-09-14T07:03:08;2.85;;;1.10;;
45490;SDS011;31237;45.586;13.782;2022-09-14T07:05:34;2.83;;;1.02;;
45490;SDS011;31237;45.586;13.782;2022-09-14T07:08:00;1.50;;;1.00;;
45490;SDS011;31237;45.586;13.782;2022-09-14T07:10:26;1.63;;;1.00;;
45490;SDS011;31237;45.586;13.782;2022-09-14T07:12:57;2.08;;;1.23;;
45490;SDS011;31237;45.586;13.782;2022-09-14T07:15:23;2.08;;;1.10;;
45490;SDS011;31237;45.586;13.782;2022-09-14T07:17:49;1.58;;;1.10;;
45490;SDS011;31237;45.586;13.782;2022-09-14T07:20:15;1.60;;;1.10;;
45490;SDS011;31237;45.586;13.782;2022-09-14T07:22:41;2.10;;;1.20;;
45490;SDS011;31237;45.586;13.782;2022-09-14T07:25:07;1.52;;;1.10;;
45490;SDS011;31237;45.586;13.782;2022-09-14T07:27:33;1.48;;;1.00;;
45490;SDS011;31237;45.586;13.782;2022-09-14T07:30:00;2.17;;;1.20;;
45490;SDS011;31237;45.586;13.782;2022-09-14T07:32:25;2.70;;;1.23;;
45490;SDS011;31237;45.586;13.782;2022-09-14T07:34:51;1.50;;;1.00;;
45490;SDS011;31237;45.586;13.782;2022-09-14T07:37:17;2.40;;;1.30;;
45490;SDS011;31237;45.586;13.782;2022-09-14T07:39:43;2.25;;;1.35;;
45490;SDS011;31237;45.586;13.782;2022-09-14T07:42:08;2.40;;;1.30;;
45490;SDS011;31237;45.586;13.782;2022-09-14T07:44:34;2.90;;;1.27;;
45490;SDS011;31237;45.586;13.782;2022-09-14T07:47:00;1.77;;;1.10;;
45490;SDS011;31237;45.586;13.782;2022-09-14T07:49:25;2.28;;;1.20;;
45490;SDS011;31237;45.586;13.782;2022-09-14T07:51:51;2.83;;;1.10;;
45490;SDS011;31237;45.586;13.782;2022-09-14T07:54:17;1.77;;;1.10;;
45490;SDS011;31237;45.586;13.782;2022-09-14T07:56:43;2.15;;;1.30;;
45490;SDS011;31237;45.586;13.782;2022-09-14T07:59:10;2.92;;;1.20;;
45490;SDS011;31237;45.586;13.782;2022-09-14T08:01:38;2.10;;;1.23;;
45490;SDS011;31237;45.586;13.782;2022-09-14T08:04:04;1.83;;;1.05;;
45490;SDS011;31237;45.586;13.782;2022-09-14T08:06:29;1.52;;;1.00;;
45490;SDS011;31237;45.586;13.782;2022-09-14T08:08:56;3.13;;;1.30;;
45490;SDS011;31237;45.586;13.782;2022-09-14T08:11:26;2.65;;;1.10;;
45490;SDS011;31237;45.586;13.782;2022-09-14T08:14:00;1.88;;;1.30;;
45490;SDS011;31237;45.586;13.782;2022-09-14T08:16:28;3.50;;;1.25;;
45490;SDS011;31237;45.586;13.782;2022-09-14T08:18:56;2.70;;;1.25;;
45490;SDS011;31237;45.586;13.782;2022-09-14T08:21:25;3.78;;;1.30;;
45490;SDS011;31237;45.586;13.782;2022-09-14T08:23:51;1.90;;;1.20;;
45490;SDS011;31237;45.586;13.782;2022-09-14T08:26:18;2.17;;;1.20;;
45490;SDS011;31237;45.586;13.782;2022-09-14T08:28:46;2.90;;;1.23;;
45490;SDS011;31237;45.586;13.782;2022-09-14T08:31:14;1.85;;;1.20;;
45490;SDS011;31237;45.586;13.782;2022-09-14T08:33:46;2.63;;;1.20;;
45490;SDS011;31237;45.586;13.782;2022-09-14T08:36:17;2.58;;;1.30;;
45490;SDS011;31237;45.586;13.782;2022-09-14T08:38:44;2.08;;;1.25;;
45490;SDS011;31237;45.586;13.782;2022-09-14T08:43:42;1.52;;;1.10;;
45490;SDS011;31237;45.586;13.782;2022-09-14T08:46:10;1.90;;;1.05;;
45490;SDS011;31237;45.586;13.782;2022-09-14T08:48:45;1.83;;;1.13;;
45490;SDS011;31237;45.586;13.782;2022-09-14T08:51:12;1.55;;;1.00;;
45490;SDS011;31237;45.586;13.782;2022-09-14T08:53:39;1.63;;;1.10;;
45490;SDS011;31237;45.586;13.782;2022-09-14T08:56:11;1.63;;;1.00;;
45490;SDS011;31237;45.586;13.782;2022-09-14T09:10:03;2.22;;;1.10;;
45490;SDS011;31237;45.586;13.782;2022-09-14T09:12:35;2.58;;;1.30;;
45490;SDS011;31237;45.586;13.782;2022-09-14T09:15:47;2.17;;;1.27;;
45490;SDS011;31237;45.586;13.782;2022-09-14T09:18:03;2.40;;;1.52;;
45490;SDS011;31237;45.586;13.782;2022-09-14T09:20:58;1.58;;;1.08;;
45490;SDS011;31237;45.586;13.782;2022-09-14T09:23:29;1.73;;;1.07;;
45490;SDS011;31237;45.586;13.782;2022-09-14T09:26:02;2.65;;;1.10;;
45490;SDS011;31237;45.586;13.782;2022-09-14T09:28:30;4.07;;;1.33;;
45490;SDS011;31237;45.586;13.782;2022-09-14T09:30:58;2.13;;;1.30;;
45490;SDS011;31237;45.586;13.782;2022-09-14T09:33:28;2.03;;;1.17;;
45490;SDS011;31237;45.586;13.782;2022-09-14T09:35:55;1.83;;;1.00;;
45490;SDS011;31237;45.586;13.782;2022-09-14T09:38:23;2.22;;;1.20;;
45490;SDS011;31237;45.586;13.782;2022-09-14T09:40:55;2.47;;;1.10;;
45490;SDS011;31237;45.586;13.782;2022-09-14T09:43:22;2.33;;;1.20;;
45490;SDS011;31237;45.586;13.782;2022-09-14T09:48:41;3.17;;;1.20;;
45490;SDS011;31237;45.586;13.782;2022-09-14T09:51:10;3.63;;;1.25;;
45490;SDS011;31237;45.586;13.782;2022-09-14T09:53:51;3.83;;;1.40;;
45490;SDS011;31237;45.586;13.782;2022-09-14T09:56:41;2.38;;;1.30;;
45490;SDS011;31237;45.586;13.782;2022-09-14T10:01:46;1.70;;;1.10;;
45490;SDS011;31237;45.586;13.782;2022-09-14T10:04:24;2.03;;;1.35;;
45490;SDS011;31237;45.586;13.782;2022-09-14T10:06:52;2.83;;;1.10;;
45490;SDS011;31237;45.586;13.782;2022-09-14T10:09:22;2.38;;;1.17;;
45490;SDS011;31237;45.586;13.782;2022-09-14T10:11:55;2.10;;;1.20;;
45490;SDS011;31237;45.586;13.782;2022-09-14T10:14:30;1.65;;;1.10;;
45490;SDS011;31237;45.586;13.782;2022-09-14T10:17:07;4.35;;;1.30;;
45490;SDS011;31237;45.586;13.782;2022-09-14T10:19:50;1.67;;;1.10;;
45490;SDS011;31237;45.586;13.782;2022-09-14T10:22:26;1.90;;;1.10;;
45490;SDS011;31237;45.586;13.782;2022-09-14T10:30:05;3.05;;;1.30;;
45490;SDS011;31237;45.586;13.782;2022-09-14T10:32:36;3.13;;;1.15;;
45490;SDS011;31237;45.586;13.782;2022-09-14T10:35:10;2.22;;;1.30;;
45490;SDS011;31237;45.586;13.782;2022-09-14T10:40:18;2.15;;;1.30;;
45490;SDS011;31237;45.586;13.782;2022-09-14T10:43:21;2.58;;;1.20;;
45490;SDS011;31237;45.586;13.782;2022-09-14T10:53:43;2.67;;;1.10;;
45490;SDS011;31237;45.586;13.782;2022-09-14T10:56:12;2.42;;;1.38;;
45490;SDS011;31237;45.586;13.782;2022-09-14T10:58:51;2.47;;;1.30;;
45490;SDS011;31237;45.586;13.782;2022-09-14T11:09:21;2.22;;;1.27;;
45490;SDS011;31237;45.586;13.782;2022-09-14T11:12:01;2.38;;;1.30;;
45490;SDS011;31237;45.586;13.782;2022-09-14T11:25:56;3.13;;;1.33;;
45490;SDS011;31237;45.586;13.782;2022-09-14T11:28:31;2.95;;;1.40;;
45490;SDS011;31237;45.586;13.782;2022-09-14T11:31:04;3.03;;;1.50;;
45490;SDS011;31237;45.586;13.782;2022-09-14T11:34:00;2.80;;;1.20;;
45490;SDS011;31237;45.586;13.782;2022-09-14T11:36:36;4.00;;;1.40;;
45490;SDS011;31237;45.586;13.782;2022-09-14T11:39:16;4.40;;;1.50;;
45490;SDS011;31237;45.586;13.782;2022-09-14T11:42:11;2.65;;;1.30;;
45490;SDS011;31237;45.586;13.782;2022-09-14T11:44:42;3.25;;;1.40;;
45490;SDS011;31237;45.586;13.782;2022-09-14T11:52:25;3.30;;;1.67;;
45490;SDS011;31237;45.586;13.782;2022-09-14T11:54:53;3.22;;;1.50;;
45490;SDS011;31237;45.586;13.782;2022-09-14T11:57:20;3.22;;;1.30;;
45490;SDS011;31237;45.586;13.782;2022-09-14T11:59:50;3.22;;;1.70;;
45490;SDS011;31237;45.586;13.782;2022-09-14T12:10:16;4.38;;;1.42;;
45490;SDS011;31237;45.586;13.782;2022-09-14T12:12:56;2.50;;;1.40;;
45490;SDS011;31237;45.586;13.782;2022-09-14T12:15:42;2.65;;;1.50;;
45490;SDS011;31237;45.586;13.782;2022-09-14T12:20:45;2.72;;;1.50;;
45490;SDS011;31237;45.586;13.782;2022-09-14T12:23:40;2.88;;;1.60;;
45490;SDS011;31237;45.586;13.782;2022-09-14T12:28:37;4.25;;;1.58;;
45490;SDS011;31237;45.586;13.782;2022-09-14T12:39:32;4.97;;;1.70;;
45490;SDS011;31237;45.586;13.782;2022-09-14T12:42:00;2.92;;;1.58;;
45490;SDS011;31237;45.586;13.782;2022-09-14T12:44:47;2.63;;;1.50;;
45490;SDS011;31237;45.586;13.782;2022-09-14T12:49:53;2.78;;;1.48;;
45490;SDS011;31237;45.586;13.782;2022-09-14T12:55:27;2.88;;;1.55;;
45490;SDS011;31237;45.586;13.782;2022-09-14T13:03:51;3.33;;;1.65;;
45490;SDS011;31237;45.586;13.782;2022-09-14T13:06:19;2.67;;;1.42;;
45490;SDS011;31237;45.586;13.782;2022-09-14T13:08:52;2.72;;;1.60;;
45490;SDS011;31237;45.586;13.782;2022-09-14T13:11:29;4.18;;;1.58;;
45490;SDS011;31237;45.586;13.782;2022-09-14T13:13:58;2.33;;;1.50;;
45490;SDS011;31237;45.586;13.782;2022-09-14T13:16:35;5.75;;;1.70;;
45490;SDS011;31237;45.586;13.782;2022-09-14T13:19:05;2.42;;;1.40;;
45490;SDS011;31237;45.586;13.782;2022-09-14T13:21:50;3.50;;;1.60;;
45490;SDS011;31237;45.586;13.782;2022-09-14T13:24:36;3.42;;;1.60;;
45490;SDS011;31237;45.586;13.782;2022-09-14T13:27:14;2.28;;;1.40;;
45490;SDS011;31237;45.586;13.782;2022-09-14T13:29:46;2.72;;;1.50;;
45490;SDS011;31237;45.586;13.782;2022-09-14T13:32:18;2.25;;;1.52;;
45490;SDS011;31237;45.586;13.782;2022-09-14T13:34:45;4.27;;;1.73;;
45490;SDS011;31237;45.586;13.782;2022-09-14T13:37:12;3.35;;;1.60;;
45490;SDS011;31237;45.586;13.782;2022-09-14T13:39:38;2.85;;;1.60;;
45490;SDS011;31237;45.586;13.782;2022-09-14T13:42:06;3.00;;;1.63;;
45490;SDS011;31237;45.586;13.782;2022-09-14T13:47:12;4.70;;;1.52;;
45490;SDS011;31237;45.586;13.782;2022-09-14T13:49:40;2.50;;;1.50;;
45490;SDS011;31237;45.586;13.782;2022-09-14T13:52:22;4.03;;;1.73;;
45490;SDS011;31237;45.586;13.782;2022-09-14T13:57:36;2.33;;;1.50;;
45490;SDS011;31237;45.586;13.782;2022-09-14T14:02:46;2.78;;;1.65;;
45490;SDS011;31237;45.586;13.782;2022-09-14T14:07:52;3.20;;;1.42;;
45490;SDS011;31237;45.586;13.782;2022-09-14T14:10:33;2.20;;;1.52;;
45490;SDS011;31237;45.586;13.782;2022-09-14T14:17:57;2.30;;;1.35;;
45490;SDS011;31237;45.586;13.782;2022-09-14T14:20:35;3.03;;;1.50;;
45490;SDS011;31237;45.586;13.782;2022-09-14T14:23:14;4.43;;;1.63;;
45490;SDS011;31237;45.586;13.782;2022-09-14T14:25:45;3.78;;;1.80;;
45490;SDS011;31237;45.586;13.782;2022-09-14T14:28:21;2.85;;;1.63;;
45490;SDS011;31237;45.586;13.782;2022-09-14T14:30:49;2.80;;;1.40;;
45490;SDS011;31237;45.586;13.782;2022-09-14T14:33:16;2.35;;;1.45;;
45490;SDS011;31237;45.586;13.782;2022-09-14T14:35:43;3.08;;;1.70;;
45490;SDS011;31237;45.586;13.782;2022-09-14T14:38:10;3.85;;;1.60;;
45490;SDS011;31237;45.586;13.782;2022-09-14T14:40:36;2.55;;;1.48;;
45490;SDS011;31237;45.586;13.782;2022-09-14T14:43:02;2.45;;;1.60;;
45490;SDS011;31237;45.586;13.782;2022-09-14T14:45:29;2.60;;;1.50;;
45490;SDS011;31237;45.586;13.782;2022-09-14T14:47:57;3.10;;;1.67;;
45490;SDS011;31237;45.586;13.782;2022-09-14T14:50:27;3.38;;;1.58;;
45490;SDS011;31237;45.586;13.782;2022-09-14T14:52:55;3.60;;;1.50;;
45490;SDS011;31237;45.586;13.782;2022-09-14T14:55:21;3.80;;;1.80;;
45490;SDS011;31237;45.586;13.782;2022-09-14T14:57:48;4.03;;;1.80;;
45490;SDS011;31237;45.586;13.782;2022-09-14T15:00:19;3.28;;;1.52;;
45490;SDS011;31237;45.586;13.782;2022-09-14T15:02:46;3.65;;;1.63;;
45490;SDS011;31237;45.586;13.782;2022-09-14T15:05:13;3.00;;;1.50;;
45490;SDS011;31237;45.586;13.782;2022-09-14T15:07:39;2.58;;;1.55;;
45490;SDS011;31237;45.586;13.782;2022-09-14T15:10:05;3.92;;;1.35;;
45490;SDS011;31237;45.586;13.782;2022-09-14T15:12:32;3.70;;;1.40;;
45490;SDS011;31237;45.586;13.782;2022-09-14T15:14:59;3.13;;;1.42;;
45490;SDS011;31237;45.586;13.782;2022-09-14T15:17:25;3.53;;;1.45;;
45490;SDS011;31237;45.586;13.782;2022-09-14T15:19:51;4.60;;;1.50;;
45490;SDS011;31237;45.586;13.782;2022-09-14T15:22:17;2.60;;;1.30;;
45490;SDS011;31237;45.586;13.782;2022-09-14T15:24:43;3.47;;;1.90;;
45490;SDS011;31237;45.586;13.782;2022-09-14T15:27:12;3.42;;;1.60;;
45490;SDS011;31237;45.586;13.782;2022-09-14T15:29:40;2.50;;;1.40;;
45490;SDS011;31237;45.586;13.782;2022-09-14T15:32:05;2.55;;;1.40;;
45490;SDS011;31237;45.586;13.782;2022-09-14T15:34:31;2.50;;;1.50;;
45490;SDS011;31237;45.586;13.782;2022-09-14T15:36:57;2.90;;;1.50;;
45490;SDS011;31237;45.586;13.782;2022-09-14T15:39:26;2.33;;;1.50;;
45490;SDS011;31237;45.586;13.782;2022-09-14T15:41:54;2.85;;;1.50;;
45490;SDS011;31237;45.586;13.782;2022-09-14T15:44:21;2.80;;;1.40;;
45490;SDS011;31237;45.586;13.782;2022-09-14T15:46:47;5.47;;;1.80;;
45490;SDS011;31237;45.586;13.782;2022-09-14T15:49:14;3.13;;;1.60;;
45490;SDS011;31237;45.586;13.782;2022-09-14T15:51:48;2.78;;;1.65;;
45490;SDS011;31237;45.586;13.782;2022-09-14T15:54:15;2.90;;;1.52;;
45490;SDS011;31237;45.586;13.782;2022-09-14T15:56:41;3.72;;;1.55;;
45490;SDS011;31237;45.586;13.782;2022-09-14T15:59:11;2.85;;;1.50;;
45490;SDS011;31237;45.586;13.782;2022-09-14T16:01:37;3.78;;;1.70;;
45490;SDS011;31237;45.586;13.782;2022-09-14T16:04:03;2.72;;;1.60;;
45490;SDS011;31237;45.586;13.782;2022-09-14T16:06:30;2.55;;;1.40;;
45490;SDS011;31237;45.586;13.782;2022-09-14T16:08:59;3.55;;;1.65;;
45490;SDS011;31237;45.586;13.782;2022-09-14T16:11:25;2.80;;;1.40;;
45490;SDS011;31237;45.586;13.782;2022-09-14T16:13:51;2.70;;;1.58;;
45490;SDS011;31237;45.586;13.782;2022-09-14T16:16:18;2.95;;;1.58;;
45490;SDS011;31237;45.586;13.782;2022-09-14T16:18:44;2.85;;;1.50;;
45490;SDS011;31237;45.586;13.782;2022-09-14T16:21:18;3.33;;;1.63;;
45490;SDS011;31237;45.586;13.782;2022-09-14T16:23:49;2.80;;;1.58;;
45490;SDS011;31237;45.586;13.782;2022-09-14T16:26:18;3.67;;;1.50;;
45490;SDS011;31237;45.586;13.782;2022-09-14T16:28:46;3.30;;;1.50;;
45490;SDS011;31237;45.586;13.782;2022-09-14T16:33:46;4.30;;;2.10;;
45490;SDS011;31237;45.586;13.782;2022-09-14T16:36:15;5.13;;;1.85;;
45490;SDS011;31237;45.586;13.782;2022-09-14T16:38:43;2.63;;;1.60;;
45490;SDS011;31237;45.586;13.782;2022-09-14T16:41:10;3.55;;;1.77;;
45490;SDS011;31237;45.586;13.782;2022-09-14T16:43:37;2.15;;;1.45;;
45490;SDS011;31237;45.586;13.782;2022-09-14T16:46:05;2.80;;;1.50;;
45490;SDS011;31237;45.586;13.782;2022-09-14T16:48:32;3.67;;;1.75;;
45490;SDS011;31237;45.586;13.782;2022-09-14T16:50:59;4.30;;;1.70;;
45490;SDS011;31237;45.586;13.782;2022-09-14T16:53:27;2.65;;;1.40;;
45490;SDS011;31237;45.586;13.782;2022-09-14T16:56:01;2.80;;;1.55;;
45490;SDS011;31237;45.586;13.782;2022-09-14T16:58:34;2.40;;;1.50;;
45490;SDS011;31237;45.586;13.782;2022-09-14T17:01:05;2.70;;;1.70;;
45490;SDS011;31237;45.586;13.782;2022-09-14T17:03:36;2.67;;;1.42;;
45490;SDS011;31237;45.586;13.782;2022-09-14T17:06:03;2.67;;;1.50;;
45490;SDS011;31237;45.586;13.782;2022-09-14T17:08:33;7.28;;;1.63;;
45490;SDS011;31237;45.586;13.782;2022-09-14T17:11:00;3.22;;;1.50;;
45490;SDS011;31237;45.586;13.782;2022-09-14T17:13:28;4.63;;;1.73;;
45490;SDS011;31237;45.586;13.782;2022-09-14T17:16:00;2.67;;;1.40;;